<?xml version="1.0" encoding="UTF-8" standalone="no" ?>
<gpx xmlns="http://www.topografix.com/GPX/1/1" xmlns:xsi="http://www.w3.org/2001/XMLSchema-instance" xsi:schemaLocation="http://www.topografix.com/GPX/1/1 http://www.topografix.com/GPX/1/1/gpx.xsd" version="1.1" creator="VisuGPX - https://www.visugpx.com">
  <metadata>
    <name>15059339-Plan d'eau et Besbre</name>
    <desc><![CDATA[Circuit non balisé à faire avec la carte en main ou GPS de rando.]]></desc>
  </metadata>
  <trk>
    <name><![CDATA[15059339-Plan d'eau et Besbre]]></name>
    <trkseg>
      <trkpt lat="46.08024" lon="3.69423">
        <ele>482</ele>
        <time>2022-07-01T15:37:03Z</time>
      </trkpt>
      <trkpt lat="46.08028" lon="3.69445">
        <ele>481</ele>
        <time>2022-07-01T15:37:24Z</time>
      </trkpt>
      <trkpt lat="46.08032" lon="3.6947">
        <ele>480</ele>
        <time>2022-07-01T15:37:48Z</time>
      </trkpt>
      <trkpt lat="46.07995" lon="3.69489">
        <ele>480</ele>
        <time>2022-07-01T15:38:40Z</time>
      </trkpt>
      <trkpt lat="46.07956" lon="3.6948">
        <ele>482</ele>
        <time>2022-07-01T15:39:33Z</time>
      </trkpt>
      <trkpt lat="46.07961" lon="3.69529">
        <ele>481</ele>
        <time>2022-07-01T15:40:19Z</time>
      </trkpt>
      <trkpt lat="46.07944" lon="3.6956">
        <ele>481</ele>
        <time>2022-07-01T15:40:55Z</time>
      </trkpt>
      <trkpt lat="46.0792" lon="3.69604">
        <ele>481</ele>
        <time>2022-07-01T15:41:47Z</time>
      </trkpt>
      <trkpt lat="46.07862" lon="3.69724">
        <ele>482</ele>
        <time>2022-07-01T15:44:03Z</time>
      </trkpt>
      <trkpt lat="46.07818" lon="3.69777">
        <ele>483</ele>
        <time>2022-07-01T15:45:19Z</time>
      </trkpt>
      <trkpt lat="46.07777" lon="3.69791">
        <ele>487</ele>
        <time>2022-07-01T15:46:15Z</time>
      </trkpt>
      <trkpt lat="46.07744" lon="3.69804">
        <ele>489</ele>
        <time>2022-07-01T15:47:01Z</time>
      </trkpt>
      <trkpt lat="46.07718" lon="3.6983">
        <ele>487</ele>
        <time>2022-07-01T15:47:43Z</time>
      </trkpt>
      <trkpt lat="46.07682" lon="3.69847">
        <ele>487</ele>
        <time>2022-07-01T15:48:34Z</time>
      </trkpt>
      <trkpt lat="46.07649" lon="3.69866">
        <ele>486</ele>
        <time>2022-07-01T15:49:21Z</time>
      </trkpt>
      <trkpt lat="46.07615" lon="3.69852">
        <ele>483</ele>
        <time>2022-07-01T15:50:08Z</time>
      </trkpt>
      <trkpt lat="46.07585" lon="3.69843">
        <ele>481</ele>
        <time>2022-07-01T15:50:49Z</time>
      </trkpt>
      <trkpt lat="46.07566" lon="3.69845">
        <ele>480</ele>
        <time>2022-07-01T15:51:15Z</time>
      </trkpt>
      <trkpt lat="46.07583" lon="3.69908">
        <ele>484</ele>
        <time>2022-07-01T15:52:17Z</time>
      </trkpt>
      <trkpt lat="46.07659" lon="3.69905">
        <ele>485</ele>
        <time>2022-07-01T15:53:59Z</time>
      </trkpt>
      <trkpt lat="46.07738" lon="3.69929">
        <ele>485</ele>
        <time>2022-07-01T15:55:46Z</time>
      </trkpt>
      <trkpt lat="46.07803" lon="3.69918">
        <ele>482</ele>
        <time>2022-07-01T15:57:14Z</time>
      </trkpt>
      <trkpt lat="46.07857" lon="3.69904">
        <ele>481</ele>
        <time>2022-07-01T15:58:27Z</time>
      </trkpt>
      <trkpt lat="46.07892" lon="3.69894">
        <ele>481</ele>
        <time>2022-07-01T15:59:15Z</time>
      </trkpt>
      <trkpt lat="46.0793" lon="3.69875">
        <ele>480</ele>
        <time>2022-07-01T16:00:08Z</time>
      </trkpt>
      <trkpt lat="46.08052" lon="3.6984">
        <ele>481</ele>
        <time>2022-07-01T16:02:54Z</time>
      </trkpt>
      <trkpt lat="46.08103" lon="3.69783">
        <ele>482</ele>
        <time>2022-07-01T16:04:20Z</time>
      </trkpt>
      <trkpt lat="46.08127" lon="3.69729">
        <ele>482</ele>
        <time>2022-07-01T16:05:20Z</time>
      </trkpt>
      <trkpt lat="46.08146" lon="3.69655">
        <ele>482</ele>
        <time>2022-07-01T16:06:33Z</time>
      </trkpt>
      <trkpt lat="46.08178" lon="3.69592">
        <ele>484</ele>
        <time>2022-07-01T16:07:45Z</time>
      </trkpt>
      <trkpt lat="46.08176" lon="3.69521">
        <ele>481</ele>
        <time>2022-07-01T16:08:51Z</time>
      </trkpt>
      <trkpt lat="46.08189" lon="3.6944">
        <ele>481</ele>
        <time>2022-07-01T16:10:08Z</time>
      </trkpt>
      <trkpt lat="46.08206" lon="3.69376">
        <ele>482</ele>
        <time>2022-07-01T16:11:11Z</time>
      </trkpt>
      <trkpt lat="46.0823" lon="3.69326">
        <ele>481</ele>
        <time>2022-07-01T16:12:07Z</time>
      </trkpt>
      <trkpt lat="46.08253" lon="3.69288">
        <ele>480</ele>
        <time>2022-07-01T16:12:54Z</time>
      </trkpt>
      <trkpt lat="46.0828" lon="3.69312">
        <ele>482</ele>
        <time>2022-07-01T16:13:37Z</time>
      </trkpt>
      <trkpt lat="46.08306" lon="3.69216">
        <ele>480</ele>
        <time>2022-07-01T16:15:12Z</time>
      </trkpt>
      <trkpt lat="46.08325" lon="3.69129">
        <ele>479</ele>
        <time>2022-07-01T16:16:36Z</time>
      </trkpt>
      <trkpt lat="46.08362" lon="3.69035">
        <ele>479</ele>
        <time>2022-07-01T16:18:16Z</time>
      </trkpt>
      <trkpt lat="46.08441" lon="3.69065">
        <ele>480</ele>
        <time>2022-07-01T16:20:05Z</time>
      </trkpt>
      <trkpt lat="46.08495" lon="3.69112">
        <ele>482</ele>
        <time>2022-07-01T16:21:30Z</time>
      </trkpt>
      <trkpt lat="46.08549" lon="3.69136">
        <ele>484</ele>
        <time>2022-07-01T16:22:45Z</time>
      </trkpt>
      <trkpt lat="46.08614" lon="3.69067">
        <ele>482</ele>
        <time>2022-07-01T16:24:33Z</time>
      </trkpt>
      <trkpt lat="46.08668" lon="3.69049">
        <ele>485</ele>
        <time>2022-07-01T16:25:47Z</time>
      </trkpt>
      <trkpt lat="46.08686" lon="3.69007">
        <ele>485</ele>
        <time>2022-07-01T16:26:32Z</time>
      </trkpt>
      <trkpt lat="46.08693" lon="3.68966">
        <ele>485</ele>
        <time>2022-07-01T16:27:11Z</time>
      </trkpt>
      <trkpt lat="46.08715" lon="3.68877">
        <ele>486</ele>
        <time>2022-07-01T16:28:39Z</time>
      </trkpt>
      <trkpt lat="46.08734" lon="3.68845">
        <ele>487</ele>
        <time>2022-07-01T16:29:18Z</time>
      </trkpt>
      <trkpt lat="46.08721" lon="3.68772">
        <ele>478</ele>
        <time>2022-07-01T16:30:28Z</time>
      </trkpt>
      <trkpt lat="46.08727" lon="3.68703">
        <ele>474</ele>
        <time>2022-07-01T16:31:32Z</time>
      </trkpt>
      <trkpt lat="46.08731" lon="3.68646">
        <ele>474</ele>
        <time>2022-07-01T16:32:25Z</time>
      </trkpt>
      <trkpt lat="46.08716" lon="3.68599">
        <ele>474</ele>
        <time>2022-07-01T16:33:13Z</time>
      </trkpt>
      <trkpt lat="46.08708" lon="3.68564">
        <ele>474</ele>
        <time>2022-07-01T16:33:47Z</time>
      </trkpt>
      <trkpt lat="46.08708" lon="3.68496">
        <ele>476</ele>
        <time>2022-07-01T16:34:50Z</time>
      </trkpt>
      <trkpt lat="46.08692" lon="3.68464">
        <ele>474</ele>
        <time>2022-07-01T16:35:26Z</time>
      </trkpt>
      <trkpt lat="46.08656" lon="3.68409">
        <ele>472</ele>
        <time>2022-07-01T16:36:36Z</time>
      </trkpt>
      <trkpt lat="46.08659" lon="3.68361">
        <ele>470</ele>
        <time>2022-07-01T16:37:21Z</time>
      </trkpt>
      <trkpt lat="46.08722" lon="3.68303">
        <ele>470</ele>
        <time>2022-07-01T16:39:01Z</time>
      </trkpt>
      <trkpt lat="46.08752" lon="3.68268">
        <ele>465</ele>
        <time>2022-07-01T16:39:52Z</time>
      </trkpt>
      <trkpt lat="46.08781" lon="3.68195">
        <ele>462</ele>
        <time>2022-07-01T16:41:10Z</time>
      </trkpt>
      <trkpt lat="46.08859" lon="3.68137">
        <ele>460</ele>
        <time>2022-07-01T16:43:07Z</time>
      </trkpt>
      <trkpt lat="46.089" lon="3.68087">
        <ele>456</ele>
        <time>2022-07-01T16:44:19Z</time>
      </trkpt>
      <trkpt lat="46.08941" lon="3.6807">
        <ele>458</ele>
        <time>2022-07-01T16:45:16Z</time>
      </trkpt>
      <trkpt lat="46.09012" lon="3.68072">
        <ele>466</ele>
        <time>2022-07-01T16:46:51Z</time>
      </trkpt>
      <trkpt lat="46.09103" lon="3.68013">
        <ele>464</ele>
        <time>2022-07-01T16:49:04Z</time>
      </trkpt>
      <trkpt lat="46.09113" lon="3.67993">
        <ele>463</ele>
        <time>2022-07-01T16:49:27Z</time>
      </trkpt>
      <trkpt lat="46.09104" lon="3.67952">
        <ele>460</ele>
        <time>2022-07-01T16:50:06Z</time>
      </trkpt>
      <trkpt lat="46.09085" lon="3.67923">
        <ele>455</ele>
        <time>2022-07-01T16:50:43Z</time>
      </trkpt>
      <trkpt lat="46.09102" lon="3.67856">
        <ele>459</ele>
        <time>2022-07-01T16:51:49Z</time>
      </trkpt>
      <trkpt lat="46.09134" lon="3.67791">
        <ele>460</ele>
        <time>2022-07-01T16:53:03Z</time>
      </trkpt>
      <trkpt lat="46.09165" lon="3.67745">
        <ele>453</ele>
        <time>2022-07-01T16:54:02Z</time>
      </trkpt>
      <trkpt lat="46.09217" lon="3.67673">
        <ele>450</ele>
        <time>2022-07-01T16:55:39Z</time>
      </trkpt>
      <trkpt lat="46.09258" lon="3.6762">
        <ele>448</ele>
        <time>2022-07-01T16:56:52Z</time>
      </trkpt>
      <trkpt lat="46.09278" lon="3.67575">
        <ele>448</ele>
        <time>2022-07-01T16:57:42Z</time>
      </trkpt>
      <trkpt lat="46.09307" lon="3.6753">
        <ele>450</ele>
        <time>2022-07-01T16:58:38Z</time>
      </trkpt>
      <trkpt lat="46.09391" lon="3.67541">
        <ele>446</ele>
        <time>2022-07-01T17:00:31Z</time>
      </trkpt>
      <trkpt lat="46.09456" lon="3.67487">
        <ele>444</ele>
        <time>2022-07-01T17:02:11Z</time>
      </trkpt>
      <trkpt lat="46.09549" lon="3.67487">
        <ele>446</ele>
        <time>2022-07-01T17:04:15Z</time>
      </trkpt>
      <trkpt lat="46.09672" lon="3.67503">
        <ele>444</ele>
        <time>2022-07-01T17:07:00Z</time>
      </trkpt>
      <trkpt lat="46.09752" lon="3.675">
        <ele>441</ele>
        <time>2022-07-01T17:08:47Z</time>
      </trkpt>
      <trkpt lat="46.09831" lon="3.67507">
        <ele>438</ele>
        <time>2022-07-01T17:10:32Z</time>
      </trkpt>
      <trkpt lat="46.09901" lon="3.67567">
        <ele>438</ele>
        <time>2022-07-01T17:12:21Z</time>
      </trkpt>
      <trkpt lat="46.09962" lon="3.67559">
        <ele>438</ele>
        <time>2022-07-01T17:13:43Z</time>
      </trkpt>
      <trkpt lat="46.10035" lon="3.67509">
        <ele>434</ele>
        <time>2022-07-01T17:15:31Z</time>
      </trkpt>
      <trkpt lat="46.10103" lon="3.67585">
        <ele>435</ele>
        <time>2022-07-01T17:17:25Z</time>
      </trkpt>
      <trkpt lat="46.1017" lon="3.67617">
        <ele>431</ele>
        <time>2022-07-01T17:19:00Z</time>
      </trkpt>
      <trkpt lat="46.10221" lon="3.67615">
        <ele>432</ele>
        <time>2022-07-01T17:20:08Z</time>
      </trkpt>
      <trkpt lat="46.10258" lon="3.67564">
        <ele>430</ele>
        <time>2022-07-01T17:21:16Z</time>
      </trkpt>
      <trkpt lat="46.10291" lon="3.67513">
        <ele>432</ele>
        <time>2022-07-01T17:22:21Z</time>
      </trkpt>
      <trkpt lat="46.10367" lon="3.67551">
        <ele>436</ele>
        <time>2022-07-01T17:24:08Z</time>
      </trkpt>
      <trkpt lat="46.10435" lon="3.67627">
        <ele>440</ele>
        <time>2022-07-01T17:26:03Z</time>
      </trkpt>
      <trkpt lat="46.10477" lon="3.67679">
        <ele>438</ele>
        <time>2022-07-01T17:27:17Z</time>
      </trkpt>
      <trkpt lat="46.10503" lon="3.67713">
        <ele>437</ele>
        <time>2022-07-01T17:28:03Z</time>
      </trkpt>
      <trkpt lat="46.10513" lon="3.6768">
        <ele>436</ele>
        <time>2022-07-01T17:28:37Z</time>
      </trkpt>
      <trkpt lat="46.10472" lon="3.67638">
        <ele>440</ele>
        <time>2022-07-01T17:29:44Z</time>
      </trkpt>
      <trkpt lat="46.10434" lon="3.67565">
        <ele>440</ele>
        <time>2022-07-01T17:31:08Z</time>
      </trkpt>
      <trkpt lat="46.10397" lon="3.67544">
        <ele>438</ele>
        <time>2022-07-01T17:32:01Z</time>
      </trkpt>
      <trkpt lat="46.10359" lon="3.67498">
        <ele>437</ele>
        <time>2022-07-01T17:33:08Z</time>
      </trkpt>
      <trkpt lat="46.10301" lon="3.67469">
        <ele>441</ele>
        <time>2022-07-01T17:34:30Z</time>
      </trkpt>
      <trkpt lat="46.10257" lon="3.67462">
        <ele>443</ele>
        <time>2022-07-01T17:35:29Z</time>
      </trkpt>
      <trkpt lat="46.10165" lon="3.67465">
        <ele>447</ele>
        <time>2022-07-01T17:37:31Z</time>
      </trkpt>
      <trkpt lat="46.10134" lon="3.67418">
        <ele>451</ele>
        <time>2022-07-01T17:38:31Z</time>
      </trkpt>
      <trkpt lat="46.10107" lon="3.67369">
        <ele>453</ele>
        <time>2022-07-01T17:39:29Z</time>
      </trkpt>
      <trkpt lat="46.10063" lon="3.67363">
        <ele>453</ele>
        <time>2022-07-01T17:40:28Z</time>
      </trkpt>
      <trkpt lat="46.10045" lon="3.67342">
        <ele>456</ele>
        <time>2022-07-01T17:40:59Z</time>
      </trkpt>
      <trkpt lat="46.10005" lon="3.67329">
        <ele>462</ele>
        <time>2022-07-01T17:41:54Z</time>
      </trkpt>
      <trkpt lat="46.09974" lon="3.67271">
        <ele>469</ele>
        <time>2022-07-01T17:43:02Z</time>
      </trkpt>
      <trkpt lat="46.09912" lon="3.67247">
        <ele>487</ele>
        <time>2022-07-01T17:44:27Z</time>
      </trkpt>
      <trkpt lat="46.09883" lon="3.6722">
        <ele>492</ele>
        <time>2022-07-01T17:45:13Z</time>
      </trkpt>
      <trkpt lat="46.09862" lon="3.67169">
        <ele>501</ele>
        <time>2022-07-01T17:46:08Z</time>
      </trkpt>
      <trkpt lat="46.09814" lon="3.67109">
        <ele>510</ele>
        <time>2022-07-01T17:47:33Z</time>
      </trkpt>
      <trkpt lat="46.09731" lon="3.66968">
        <ele>528</ele>
        <time>2022-07-01T17:50:24Z</time>
      </trkpt>
      <trkpt lat="46.09695" lon="3.66911">
        <ele>535</ele>
        <time>2022-07-01T17:51:36Z</time>
      </trkpt>
      <trkpt lat="46.0965" lon="3.66851">
        <ele>539</ele>
        <time>2022-07-01T17:52:57Z</time>
      </trkpt>
      <trkpt lat="46.09584" lon="3.66823">
        <ele>545</ele>
        <time>2022-07-01T17:54:29Z</time>
      </trkpt>
      <trkpt lat="46.09535" lon="3.66802">
        <ele>547</ele>
        <time>2022-07-01T17:55:37Z</time>
      </trkpt>
      <trkpt lat="46.09465" lon="3.66829">
        <ele>547</ele>
        <time>2022-07-01T17:57:14Z</time>
      </trkpt>
      <trkpt lat="46.09382" lon="3.66835">
        <ele>546</ele>
        <time>2022-07-01T17:59:05Z</time>
      </trkpt>
      <trkpt lat="46.09324" lon="3.66869">
        <ele>544</ele>
        <time>2022-07-01T18:00:29Z</time>
      </trkpt>
      <trkpt lat="46.09227" lon="3.66886">
        <ele>541</ele>
        <time>2022-07-01T18:02:39Z</time>
      </trkpt>
      <trkpt lat="46.09161" lon="3.66879">
        <ele>538</ele>
        <time>2022-07-01T18:04:07Z</time>
      </trkpt>
      <trkpt lat="46.09126" lon="3.66832">
        <ele>538</ele>
        <time>2022-07-01T18:05:11Z</time>
      </trkpt>
      <trkpt lat="46.09077" lon="3.66826">
        <ele>533</ele>
        <time>2022-07-01T18:06:17Z</time>
      </trkpt>
      <trkpt lat="46.08998" lon="3.66829">
        <ele>530</ele>
        <time>2022-07-01T18:08:02Z</time>
      </trkpt>
      <trkpt lat="46.08927" lon="3.66768">
        <ele>525</ele>
        <time>2022-07-01T18:09:52Z</time>
      </trkpt>
      <trkpt lat="46.08852" lon="3.66738">
        <ele>522</ele>
        <time>2022-07-01T18:11:36Z</time>
      </trkpt>
      <trkpt lat="46.08746" lon="3.66736">
        <ele>521</ele>
        <time>2022-07-01T18:13:58Z</time>
      </trkpt>
      <trkpt lat="46.08676" lon="3.6666">
        <ele>521</ele>
        <time>2022-07-01T18:15:55Z</time>
      </trkpt>
      <trkpt lat="46.08682" lon="3.6677">
        <ele>520</ele>
        <time>2022-07-01T18:17:37Z</time>
      </trkpt>
      <trkpt lat="46.08667" lon="3.66949">
        <ele>517</ele>
        <time>2022-07-01T18:20:24Z</time>
      </trkpt>
      <trkpt lat="46.08616" lon="3.67082">
        <ele>514</ele>
        <time>2022-07-01T18:22:44Z</time>
      </trkpt>
      <trkpt lat="46.08563" lon="3.67221">
        <ele>512</ele>
        <time>2022-07-01T18:25:11Z</time>
      </trkpt>
      <trkpt lat="46.08521" lon="3.67331">
        <ele>511</ele>
        <time>2022-07-01T18:27:07Z</time>
      </trkpt>
      <trkpt lat="46.08477" lon="3.67385">
        <ele>508</ele>
        <time>2022-07-01T18:28:24Z</time>
      </trkpt>
      <trkpt lat="46.0844" lon="3.67437">
        <ele>503</ele>
        <time>2022-07-01T18:29:33Z</time>
      </trkpt>
      <trkpt lat="46.08406" lon="3.67457">
        <ele>497</ele>
        <time>2022-07-01T18:30:22Z</time>
      </trkpt>
      <trkpt lat="46.08356" lon="3.6745">
        <ele>493</ele>
        <time>2022-07-01T18:31:29Z</time>
      </trkpt>
      <trkpt lat="46.08306" lon="3.6747">
        <ele>486</ele>
        <time>2022-07-01T18:32:39Z</time>
      </trkpt>
      <trkpt lat="46.08258" lon="3.67509">
        <ele>480</ele>
        <time>2022-07-01T18:33:52Z</time>
      </trkpt>
      <trkpt lat="46.08216" lon="3.67534">
        <ele>475</ele>
        <time>2022-07-01T18:34:53Z</time>
      </trkpt>
      <trkpt lat="46.08177" lon="3.6752">
        <ele>473</ele>
        <time>2022-07-01T18:35:47Z</time>
      </trkpt>
      <trkpt lat="46.08192" lon="3.67557">
        <ele>472</ele>
        <time>2022-07-01T18:36:26Z</time>
      </trkpt>
      <trkpt lat="46.08206" lon="3.67581">
        <ele>470</ele>
        <time>2022-07-01T18:36:55Z</time>
      </trkpt>
      <trkpt lat="46.08194" lon="3.67597">
        <ele>470</ele>
        <time>2022-07-01T18:37:17Z</time>
      </trkpt>
      <trkpt lat="46.08151" lon="3.67607">
        <ele>472</ele>
        <time>2022-07-01T18:38:15Z</time>
      </trkpt>
      <trkpt lat="46.08135" lon="3.67644">
        <ele>475</ele>
        <time>2022-07-01T18:38:56Z</time>
      </trkpt>
      <trkpt lat="46.08101" lon="3.67693">
        <ele>480</ele>
        <time>2022-07-01T18:40:00Z</time>
      </trkpt>
      <trkpt lat="46.08057" lon="3.67727">
        <ele>478</ele>
        <time>2022-07-01T18:41:06Z</time>
      </trkpt>
      <trkpt lat="46.07981" lon="3.67702">
        <ele>477</ele>
        <time>2022-07-01T18:42:50Z</time>
      </trkpt>
      <trkpt lat="46.07947" lon="3.67696">
        <ele>476</ele>
        <time>2022-07-01T18:43:36Z</time>
      </trkpt>
      <trkpt lat="46.07928" lon="3.67736">
        <ele>474</ele>
        <time>2022-07-01T18:44:21Z</time>
      </trkpt>
      <trkpt lat="46.07897" lon="3.67764">
        <ele>474</ele>
        <time>2022-07-01T18:45:10Z</time>
      </trkpt>
      <trkpt lat="46.07864" lon="3.67793">
        <ele>477</ele>
        <time>2022-07-01T18:46:01Z</time>
      </trkpt>
      <trkpt lat="46.07848" lon="3.67848">
        <ele>482</ele>
        <time>2022-07-01T18:46:56Z</time>
      </trkpt>
      <trkpt lat="46.0789" lon="3.67887">
        <ele>485</ele>
        <time>2022-07-01T18:48:03Z</time>
      </trkpt>
      <trkpt lat="46.07916" lon="3.67966">
        <ele>497</ele>
        <time>2022-07-01T18:49:24Z</time>
      </trkpt>
      <trkpt lat="46.0795" lon="3.68029">
        <ele>511</ele>
        <time>2022-07-01T18:50:38Z</time>
      </trkpt>
      <trkpt lat="46.07916" lon="3.68085">
        <ele>514</ele>
        <time>2022-07-01T18:51:47Z</time>
      </trkpt>
      <trkpt lat="46.07846" lon="3.68167">
        <ele>520</ele>
        <time>2022-07-01T18:53:47Z</time>
      </trkpt>
      <trkpt lat="46.07814" lon="3.68191">
        <ele>522</ele>
        <time>2022-07-01T18:54:35Z</time>
      </trkpt>
      <trkpt lat="46.0778" lon="3.68224">
        <ele>525</ele>
        <time>2022-07-01T18:55:30Z</time>
      </trkpt>
      <trkpt lat="46.07747" lon="3.68259">
        <ele>528</ele>
        <time>2022-07-01T18:56:25Z</time>
      </trkpt>
      <trkpt lat="46.07741" lon="3.68306">
        <ele>532</ele>
        <time>2022-07-01T18:57:09Z</time>
      </trkpt>
      <trkpt lat="46.07733" lon="3.68387">
        <ele>537</ele>
        <time>2022-07-01T18:58:25Z</time>
      </trkpt>
      <trkpt lat="46.07785" lon="3.68398">
        <ele>540</ele>
        <time>2022-07-01T18:59:35Z</time>
      </trkpt>
      <trkpt lat="46.07866" lon="3.68393">
        <ele>543</ele>
        <time>2022-07-01T19:01:23Z</time>
      </trkpt>
      <trkpt lat="46.07913" lon="3.68391">
        <ele>544</ele>
        <time>2022-07-01T19:02:26Z</time>
      </trkpt>
      <trkpt lat="46.07921" lon="3.68494">
        <ele>543</ele>
        <time>2022-07-01T19:04:02Z</time>
      </trkpt>
      <trkpt lat="46.07931" lon="3.68599">
        <ele>543</ele>
        <time>2022-07-01T19:05:40Z</time>
      </trkpt>
      <trkpt lat="46.07988" lon="3.68559">
        <ele>541</ele>
        <time>2022-07-01T19:07:04Z</time>
      </trkpt>
      <trkpt lat="46.08096" lon="3.68641">
        <ele>532</ele>
        <time>2022-07-01T19:09:47Z</time>
      </trkpt>
      <trkpt lat="46.08221" lon="3.68725">
        <ele>517</ele>
        <time>2022-07-01T19:12:51Z</time>
      </trkpt>
      <trkpt lat="46.08294" lon="3.68684">
        <ele>511</ele>
        <time>2022-07-01T19:14:36Z</time>
      </trkpt>
      <trkpt lat="46.08323" lon="3.68647">
        <ele>505</ele>
        <time>2022-07-01T19:15:28Z</time>
      </trkpt>
      <trkpt lat="46.08406" lon="3.68737">
        <ele>502</ele>
        <time>2022-07-01T19:17:46Z</time>
      </trkpt>
      <trkpt lat="46.08478" lon="3.68753">
        <ele>500</ele>
        <time>2022-07-01T19:19:23Z</time>
      </trkpt>
      <trkpt lat="46.0853" lon="3.68734">
        <ele>491</ele>
        <time>2022-07-01T19:20:35Z</time>
      </trkpt>
      <trkpt lat="46.0856" lon="3.68719">
        <ele>484</ele>
        <time>2022-07-01T19:21:17Z</time>
      </trkpt>
      <trkpt lat="46.08594" lon="3.68679">
        <ele>476</ele>
        <time>2022-07-01T19:22:16Z</time>
      </trkpt>
      <trkpt lat="46.08594" lon="3.68658">
        <ele>475</ele>
        <time>2022-07-01T19:22:35Z</time>
      </trkpt>
      <trkpt lat="46.08615" lon="3.687">
        <ele>475</ele>
        <time>2022-07-01T19:23:23Z</time>
      </trkpt>
      <trkpt lat="46.08637" lon="3.68733">
        <ele>473</ele>
        <time>2022-07-01T19:24:06Z</time>
      </trkpt>
      <trkpt lat="46.08579" lon="3.68785">
        <ele>483</ele>
        <time>2022-07-01T19:25:37Z</time>
      </trkpt>
      <trkpt lat="46.08541" lon="3.68836">
        <ele>486</ele>
        <time>2022-07-01T19:26:46Z</time>
      </trkpt>
      <trkpt lat="46.08486" lon="3.68876">
        <ele>486</ele>
        <time>2022-07-01T19:28:08Z</time>
      </trkpt>
      <trkpt lat="46.08415" lon="3.68897">
        <ele>485</ele>
        <time>2022-07-01T19:29:45Z</time>
      </trkpt>
      <trkpt lat="46.08356" lon="3.68917">
        <ele>485</ele>
        <time>2022-07-01T19:31:06Z</time>
      </trkpt>
      <trkpt lat="46.08288" lon="3.68956">
        <ele>486</ele>
        <time>2022-07-01T19:32:44Z</time>
      </trkpt>
      <trkpt lat="46.08265" lon="3.68977">
        <ele>484</ele>
        <time>2022-07-01T19:33:20Z</time>
      </trkpt>
      <trkpt lat="46.08278" lon="3.69028">
        <ele>480</ele>
        <time>2022-07-01T19:34:10Z</time>
      </trkpt>
      <trkpt lat="46.08234" lon="3.69054">
        <ele>482</ele>
        <time>2022-07-01T19:35:14Z</time>
      </trkpt>
      <trkpt lat="46.08199" lon="3.69035">
        <ele>487</ele>
        <time>2022-07-01T19:36:04Z</time>
      </trkpt>
      <trkpt lat="46.08184" lon="3.69061">
        <ele>487</ele>
        <time>2022-07-01T19:36:35Z</time>
      </trkpt>
      <trkpt lat="46.08194" lon="3.69101">
        <ele>483</ele>
        <time>2022-07-01T19:37:14Z</time>
      </trkpt>
      <trkpt lat="46.08152" lon="3.69139">
        <ele>482</ele>
        <time>2022-07-01T19:38:20Z</time>
      </trkpt>
      <trkpt lat="46.08138" lon="3.69145">
        <ele>483</ele>
        <time>2022-07-01T19:38:40Z</time>
      </trkpt>
      <trkpt lat="46.08111" lon="3.69112">
        <ele>489</ele>
        <time>2022-07-01T19:39:27Z</time>
      </trkpt>
      <trkpt lat="46.08101" lon="3.69119">
        <ele>490</ele>
        <time>2022-07-01T19:39:42Z</time>
      </trkpt>
      <trkpt lat="46.08114" lon="3.69198">
        <ele>483</ele>
        <time>2022-07-01T19:40:57Z</time>
      </trkpt>
      <trkpt lat="46.081" lon="3.69254">
        <ele>484</ele>
        <time>2022-07-01T19:41:52Z</time>
      </trkpt>
      <trkpt lat="46.08079" lon="3.69353">
        <ele>482</ele>
        <time>2022-07-01T19:43:28Z</time>
      </trkpt>
      <trkpt lat="46.08069" lon="3.69411">
        <ele>480</ele>
        <time>2022-07-01T19:44:23Z</time>
      </trkpt>
      <trkpt lat="46.08055" lon="3.69449">
        <ele>480</ele>
        <time>2022-07-01T19:45:03Z</time>
      </trkpt>
      <trkpt lat="46.08016" lon="3.69403">
        <ele>484</ele>
        <time>2022-07-01T19:46:10Z</time>
      </trkpt>
    </trkseg>
  </trk>
</gpx>